Terminal Aerodrome Forecast
Issued by NWS

Current Version | Previous Version | Text Only | Print | Product List | Glossary On
Versions: 1 2 3 4 5 6 7 8 9 10 11 12
000
FTUS44 KEPZ 230500
TAFTCS
TAF
KTCS 230540Z 2306/2406 31006KT P6SM SKC
     FM231500 00000KT P6SM SKC
     FM231900 VRB05KT P6SM FEW250=

USA.gov is the U.S. government's official web portal to all federal, state and local government web resources and services.